sensor_id;sensor_type;location;lat;lon;timestamp;temperature;humidity
16485;DHT22;8353;47.856;12.344;2023-07-16T00:00:49;28.00;99.90
16485;DHT22;8353;47.856;12.344;2023-07-16T00:03:20;27.80;99.90
16485;DHT22;8353;47.856;12.344;2023-07-16T00:05:51;27.70;99.90
16485;DHT22;8353;47.856;12.344;2023-07-16T00:08:22;27.60;99.90
16485;DHT22;8353;47.856;12.344;2023-07-16T00:10:52;27.40;99.90
16485;DHT22;8353;47.856;12.344;2023-07-16T00:13:22;27.20;99.90
16485;DHT22;8353;47.856;12.344;2023-07-16T00:15:53;27.00;99.90
16485;DHT22;8353;47.856;12.344;2023-07-16T00:18:23;27.00;99.90
16485;DHT22;8353;47.856;12.344;2023-07-16T00:20:54;26.90;99.90
16485;DHT22;8353;47.856;12.344;2023-07-16T00:23:25;26.90;99.90
16485;DHT22;8353;47.856;12.344;2023-07-16T00:25:55;26.80;99.90
16485;DHT22;8353;47.856;12.344;2023-07-16T00:28:26;26.60;99.90
16485;DHT22;8353;47.856;12.344;2023-07-16T00:30:56;26.40;99.90
16485;DHT22;8353;47.856;12.344;2023-07-16T00:33:25;26.30;99.90
16485;DHT22;8353;47.856;12.344;2023-07-16T00:35:57;26.30;99.90
16485;DHT22;8353;47.856;12.344;2023-07-16T00:38:28;26.30;99.90
16485;DHT22;8353;47.856;12.344;2023-07-16T00:40:59;26.20;99.90
16485;DHT22;8353;47.856;12.344;2023-07-16T00:43:30;26.10;99.90
16485;DHT22;8353;47.856;12.344;2023-07-16T00:46:01;26.00;99.90
16485;DHT22;8353;47.856;12.344;2023-07-16T00:48:31;25.90;99.90
16485;DHT22;8353;47.856;12.344;2023-07-16T00:51:04;25.90;99.90
16485;DHT22;8353;47.856;12.344;2023-07-16T00:53:35;25.80;99.90
16485;DHT22;8353;47.856;12.344;2023-07-16T00:56:07;25.80;99.90
16485;DHT22;8353;47.856;12.344;2023-07-16T00:58:37;25.70;99.90
16485;DHT22;8353;47.856;12.344;2023-07-16T01:01:08;25.80;99.90
16485;DHT22;8353;47.856;12.344;2023-07-16T01:11:02;25.50;99.90
16485;DHT22;8353;47.856;12.344;2023-07-16T01:13:48;25.50;99.90
16485;DHT22;8353;47.856;12.344;2023-07-16T01:16:34;25.50;99.90
16485;DHT22;8353;47.856;12.344;2023-07-16T01:19:19;25.50;99.90
16485;DHT22;8353;47.856;12.344;2023-07-16T01:22:18;25.40;99.90
16485;DHT22;8353;47.856;12.344;2023-07-16T01:25:35;25.20;99.90
16485;DHT22;8353;47.856;12.344;2023-07-16T01:28:27;25.10;99.90
16485;DHT22;8353;47.856;12.344;2023-07-16T01:31:07;25.20;99.90
16485;DHT22;8353;47.856;12.344;2023-07-16T01:33:38;25.20;99.90
16485;DHT22;8353;47.856;12.344;2023-07-16T01:36:11;25.10;99.90
16485;DHT22;8353;47.856;12.344;2023-07-16T01:38:42;25.00;99.90
16485;DHT22;8353;47.856;12.344;2023-07-16T01:41:12;25.00;99.90
16485;DHT22;8353;47.856;12.344;2023-07-16T01:43:43;25.00;99.90
16485;DHT22;8353;47.856;12.344;2023-07-16T01:46:15;25.00;99.90
16485;DHT22;8353;47.856;12.344;2023-07-16T01:48:45;24.90;99.90
16485;DHT22;8353;47.856;12.344;2023-07-16T01:51:15;24.80;99.90
16485;DHT22;8353;47.856;12.344;2023-07-16T01:53:46;24.80;99.90
16485;DHT22;8353;47.856;12.344;2023-07-16T01:56:17;24.70;99.90
16485;DHT22;8353;47.856;12.344;2023-07-16T01:58:48;24.70;99.90
16485;DHT22;8353;47.856;12.344;2023-07-16T02:01:20;24.80;99.90
16485;DHT22;8353;47.856;12.344;2023-07-16T02:03:51;24.70;99.90
16485;DHT22;8353;47.856;12.344;2023-07-16T02:06:21;24.70;99.90
16485;DHT22;8353;47.856;12.344;2023-07-16T02:08:52;24.60;99.90
16485;DHT22;8353;47.856;12.344;2023-07-16T02:11:22;24.60;99.90
16485;DHT22;8353;47.856;12.344;2023-07-16T02:13:52;24.60;99.90
16485;DHT22;8353;47.856;12.344;2023-07-16T02:16:24;24.50;99.90
16485;DHT22;8353;47.856;12.344;2023-07-16T02:18:55;24.50;99.90
16485;DHT22;8353;47.856;12.344;2023-07-16T02:21:25;24.50;99.90
16485;DHT22;8353;47.856;12.344;2023-07-16T02:23:56;24.50;99.90
16485;DHT22;8353;47.856;12.344;2023-07-16T02:26:26;24.50;99.90
16485;DHT22;8353;47.856;12.344;2023-07-16T02:28:57;24.40;99.90
16485;DHT22;8353;47.856;12.344;2023-07-16T02:31:29;24.30;99.90
16485;DHT22;8353;47.856;12.344;2023-07-16T02:33:59;24.40;99.90
16485;DHT22;8353;47.856;12.344;2023-07-16T02:36:30;24.20;99.90
16485;DHT22;8353;47.856;12.344;2023-07-16T02:39:00;24.20;99.90
16485;DHT22;8353;47.856;12.344;2023-07-16T02:41:30;24.10;99.90
16485;DHT22;8353;47.856;12.344;2023-07-16T02:44:01;24.10;99.90
16485;DHT22;8353;47.856;12.344;2023-07-16T02:46:33;23.90;99.90
16485;DHT22;8353;47.856;12.344;2023-07-16T02:49:04;23.90;99.90
16485;DHT22;8353;47.856;12.344;2023-07-16T02:51:34;24.00;99.90
16485;DHT22;8353;47.856;12.344;2023-07-16T02:54:03;24.10;99.90
16485;DHT22;8353;47.856;12.344;2023-07-16T02:56:34;24.10;99.90
16485;DHT22;8353;47.856;12.344;2023-07-16T02:59:04;24.20;99.90
16485;DHT22;8353;47.856;12.344;2023-07-16T03:01:36;24.20;99.90
16485;DHT22;8353;47.856;12.344;2023-07-16T03:04:06;24.20;99.90
16485;DHT22;8353;47.856;12.344;2023-07-16T03:06:36;24.30;99.90
16485;DHT22;8353;47.856;12.344;2023-07-16T03:09:06;24.30;99.90
16485;DHT22;8353;47.856;12.344;2023-07-16T03:11:37;24.40;99.90
16485;DHT22;8353;47.856;12.344;2023-07-16T03:14:08;24.30;99.90
16485;DHT22;8353;47.856;12.344;2023-07-16T03:16:39;24.20;99.90
16485;DHT22;8353;47.856;12.344;2023-07-16T03:19:09;24.30;99.90
16485;DHT22;8353;47.856;12.344;2023-07-16T03:21:39;24.30;99.90
16485;DHT22;8353;47.856;12.344;2023-07-16T03:24:10;24.20;99.90
16485;DHT22;8353;47.856;12.344;2023-07-16T03:26:41;24.20;99.90
16485;DHT22;8353;47.856;12.344;2023-07-16T03:29:14;24.20;99.90
16485;DHT22;8353;47.856;12.344;2023-07-16T03:31:46;24.10;99.90
16485;DHT22;8353;47.856;12.344;2023-07-16T03:34:16;24.20;99.90
16485;DHT22;8353;47.856;12.344;2023-07-16T03:36:46;24.20;99.90
16485;DHT22;8353;47.856;12.344;2023-07-16T03:39:16;24.30;99.90
16485;DHT22;8353;47.856;12.344;2023-07-16T03:41:46;24.30;99.90
16485;DHT22;8353;47.856;12.344;2023-07-16T03:44:17;24.40;99.90
16485;DHT22;8353;47.856;12.344;2023-07-16T03:46:48;24.50;99.90
16485;DHT22;8353;47.856;12.344;2023-07-16T03:49:19;24.50;99.90
16485;DHT22;8353;47.856;12.344;2023-07-16T03:51:49;24.60;99.90
16485;DHT22;8353;47.856;12.344;2023-07-16T03:54:20;24.70;99.90
16485;DHT22;8353;47.856;12.344;2023-07-16T03:56:50;24.90;99.90
16485;DHT22;8353;47.856;12.344;2023-07-16T03:59:20;24.80;99.90
16485;DHT22;8353;47.856;12.344;2023-07-16T04:01:52;24.80;99.90
16485;DHT22;8353;47.856;12.344;2023-07-16T04:04:23;24.70;99.90
16485;DHT22;8353;47.856;12.344;2023-07-16T04:06:53;24.90;99.90
16485;DHT22;8353;47.856;12.344;2023-07-16T04:09:25;25.10;99.90
16485;DHT22;8353;47.856;12.344;2023-07-16T04:11:55;25.00;99.90
16485;DHT22;8353;47.856;12.344;2023-07-16T04:14:26;24.90;99.90
16485;DHT22;8353;47.856;12.344;2023-07-16T04:16:58;24.90;99.90
16485;DHT22;8353;47.856;12.344;2023-07-16T04:19:29;25.20;99.90
16485;DHT22;8353;47.856;12.344;2023-07-16T04:22:00;25.10;99.90
16485;DHT22;8353;47.856;12.344;2023-07-16T04:24:30;25.20;99.90
16485;DHT22;8353;47.856;12.344;2023-07-16T04:27:01;25.20;99.90
16485;DHT22;8353;47.856;12.344;2023-07-16T04:29:31;25.40;99.90
16485;DHT22;8353;47.856;12.344;2023-07-16T04:32:03;25.50;99.90
16485;DHT22;8353;47.856;12.344;2023-07-16T04:34:33;25.50;99.90
16485;DHT22;8353;47.856;12.344;2023-07-16T04:37:04;25.60;99.90
16485;DHT22;8353;47.856;12.344;2023-07-16T04:39:34;25.50;99.90
16485;DHT22;8353;47.856;12.344;2023-07-16T04:42:04;25.40;99.90
16485;DHT22;8353;47.856;12.344;2023-07-16T04:44:35;25.30;99.90
16485;DHT22;8353;47.856;12.344;2023-07-16T04:47:06;25.40;99.90
16485;DHT22;8353;47.856;12.344;2023-07-16T04:49:37;25.50;99.90
16485;DHT22;8353;47.856;12.344;2023-07-16T04:52:07;25.60;99.90
16485;DHT22;8353;47.856;12.344;2023-07-16T04:54:38;25.60;99.90
16485;DHT22;8353;47.856;12.344;2023-07-16T04:57:08;25.50;99.90
16485;DHT22;8353;47.856;12.344;2023-07-16T04:59:38;25.60;99.90
16485;DHT22;8353;47.856;12.344;2023-07-16T05:02:09;25.60;99.90
16485;DHT22;8353;47.856;12.344;2023-07-16T05:04:39;25.60;99.90
16485;DHT22;8353;47.856;12.344;2023-07-16T05:07:10;25.70;99.90
16485;DHT22;8353;47.856;12.344;2023-07-16T05:09:42;25.60;99.90
16485;DHT22;8353;47.856;12.344;2023-07-16T05:12:12;25.60;99.90
16485;DHT22;8353;47.856;12.344;2023-07-16T05:14:44;25.60;99.90
16485;DHT22;8353;47.856;12.344;2023-07-16T05:17:16;25.50;99.90
16485;DHT22;8353;47.856;12.344;2023-07-16T05:19:47;25.10;99.90
16485;DHT22;8353;47.856;12.344;2023-07-16T05:22:18;24.80;99.90
16485;DHT22;8353;47.856;12.344;2023-07-16T05:24:49;24.80;99.90
16485;DHT22;8353;47.856;12.344;2023-07-16T05:27:18;24.80;99.90
16485;DHT22;8353;47.856;12.344;2023-07-16T05:29:49;24.80;99.90
16485;DHT22;8353;47.856;12.344;2023-07-16T05:32:21;24.60;99.90
16485;DHT22;8353;47.856;12.344;2023-07-16T05:34:52;24.40;99.90
16485;DHT22;8353;47.856;12.344;2023-07-16T05:37:22;24.40;99.90
16485;DHT22;8353;47.856;12.344;2023-07-16T05:39:52;24.50;99.90
16485;DHT22;8353;47.856;12.344;2023-07-16T05:42:23;24.60;99.90
16485;DHT22;8353;47.856;12.344;2023-07-16T05:44:53;24.70;99.90
16485;DHT22;8353;47.856;12.344;2023-07-16T05:47:25;24.70;99.90
16485;DHT22;8353;47.856;12.344;2023-07-16T05:49:56;24.60;99.90
16485;DHT22;8353;47.856;12.344;2023-07-16T05:52:26;24.50;99.90
16485;DHT22;8353;47.856;12.344;2023-07-16T05:54:57;24.40;99.90
16485;DHT22;8353;47.856;12.344;2023-07-16T05:57:27;24.40;99.90
16485;DHT22;8353;47.856;12.344;2023-07-16T05:59:58;24.40;99.90
16485;DHT22;8353;47.856;12.344;2023-07-16T06:02:33;24.40;99.90
16485;DHT22;8353;47.856;12.344;2023-07-16T06:05:03;24.40;99.90
16485;DHT22;8353;47.856;12.344;2023-07-16T06:07:33;24.50;99.90
16485;DHT22;8353;47.856;12.344;2023-07-16T06:10:05;24.40;99.90
16485;DHT22;8353;47.856;12.344;2023-07-16T06:12:36;24.40;99.90
16485;DHT22;8353;47.856;12.344;2023-07-16T06:15:07;24.40;99.90
16485;DHT22;8353;47.856;12.344;2023-07-16T06:17:39;24.50;99.90
16485;DHT22;8353;47.856;12.344;2023-07-16T06:20:10;24.40;99.90
16485;DHT22;8353;47.856;12.344;2023-07-16T06:22:40;24.40;99.90
16485;DHT22;8353;47.856;12.344;2023-07-16T06:25:10;24.30;99.90
16485;DHT22;8353;47.856;12.344;2023-07-16T06:27:41;24.30;99.90
16485;DHT22;8353;47.856;12.344;2023-07-16T06:30:12;24.30;99.90
16485;DHT22;8353;47.856;12.344;2023-07-16T06:32:44;24.50;99.90
16485;DHT22;8353;47.856;12.344;2023-07-16T06:35:15;24.50;99.90
16485;DHT22;8353;47.856;12.344;2023-07-16T06:37:45;24.60;99.90
16485;DHT22;8353;47.856;12.344;2023-07-16T06:40:16;24.50;99.90
16485;DHT22;8353;47.856;12.344;2023-07-16T06:42:46;24.30;99.90
16485;DHT22;8353;47.856;12.344;2023-07-16T06:45:17;23.90;99.90
16485;DHT22;8353;47.856;12.344;2023-07-16T06:47:50;23.90;99.90
16485;DHT22;8353;47.856;12.344;2023-07-16T06:50:20;23.90;99.90
16485;DHT22;8353;47.856;12.344;2023-07-16T06:52:50;23.90;99.90
16485;DHT22;8353;47.856;12.344;2023-07-16T06:55:21;23.80;99.90
16485;DHT22;8353;47.856;12.344;2023-07-16T06:57:51;24.00;99.90
16485;DHT22;8353;47.856;12.344;2023-07-16T07:00:21;23.90;99.90
16485;DHT22;8353;47.856;12.344;2023-07-16T07:02:53;23.90;99.90
16485;DHT22;8353;47.856;12.344;2023-07-16T07:05:24;24.00;99.90
16485;DHT22;8353;47.856;12.344;2023-07-16T07:07:54;24.10;99.90
16485;DHT22;8353;47.856;12.344;2023-07-16T07:10:24;24.10;99.90
16485;DHT22;8353;47.856;12.344;2023-07-16T07:12:54;24.10;99.90
16485;DHT22;8353;47.856;12.344;2023-07-16T07:15:25;24.10;99.90
16485;DHT22;8353;47.856;12.344;2023-07-16T07:17:56;24.10;99.90
16485;DHT22;8353;47.856;12.344;2023-07-16T07:20:27;24.10;99.90
16485;DHT22;8353;47.856;12.344;2023-07-16T07:22:58;23.90;99.90
16485;DHT22;8353;47.856;12.344;2023-07-16T07:25:31;23.70;99.90
16485;DHT22;8353;47.856;12.344;2023-07-16T07:28:02;23.70;99.90
16485;DHT22;8353;47.856;12.344;2023-07-16T07:30:33;23.90;99.90
16485;DHT22;8353;47.856;12.344;2023-07-16T07:33:05;24.10;99.90
16485;DHT22;8353;47.856;12.344;2023-07-16T07:35:36;24.10;99.90
16485;DHT22;8353;47.856;12.344;2023-07-16T07:38:07;24.10;99.90
16485;DHT22;8353;47.856;12.344;2023-07-16T07:40:38;24.00;99.90
16485;DHT22;8353;47.856;12.344;2023-07-16T07:43:09;24.10;99.90
16485;DHT22;8353;47.856;12.344;2023-07-16T07:45:39;24.20;99.90
16485;DHT22;8353;47.856;12.344;2023-07-16T07:48:11;24.30;99.90
16485;DHT22;8353;47.856;12.344;2023-07-16T07:50:41;24.20;99.90
16485;DHT22;8353;47.856;12.344;2023-07-16T07:53:11;24.30;99.90
16485;DHT22;8353;47.856;12.344;2023-07-16T07:55:43;24.20;99.90
16485;DHT22;8353;47.856;12.344;2023-07-16T07:58:13;24.10;99.90
16485;DHT22;8353;47.856;12.344;2023-07-16T08:00:44;24.20;99.90
16485;DHT22;8353;47.856;12.344;2023-07-16T08:03:16;24.00;99.90
16485;DHT22;8353;47.856;12.344;2023-07-16T08:05:48;24.20;99.90
16485;DHT22;8353;47.856;12.344;2023-07-16T08:08:18;24.20;99.90
16485;DHT22;8353;47.856;12.344;2023-07-16T08:10:49;24.00;99.90
16485;DHT22;8353;47.856;12.344;2023-07-16T08:13:19;24.00;99.90
16485;DHT22;8353;47.856;12.344;2023-07-16T08:15:50;24.00;99.90
16485;DHT22;8353;47.856;12.344;2023-07-16T08:18:24;23.90;99.90
16485;DHT22;8353;47.856;12.344;2023-07-16T08:20:54;23.90;99.90
16485;DHT22;8353;47.856;12.344;2023-07-16T08:23:25;24.10;99.90
16485;DHT22;8353;47.856;12.344;2023-07-16T08:25:55;24.00;99.90
16485;DHT22;8353;47.856;12.344;2023-07-16T08:28:25;23.80;99.90
16485;DHT22;8353;47.856;12.344;2023-07-16T08:30:56;23.90;99.90
16485;DHT22;8353;47.856;12.344;2023-07-16T08:33:27;23.90;99.90
16485;DHT22;8353;47.856;12.344;2023-07-16T08:35:58;24.00;99.90
16485;DHT22;8353;47.856;12.344;2023-07-16T08:38:28;24.00;99.90
16485;DHT22;8353;47.856;12.344;2023-07-16T08:41:01;24.20;99.90
16485;DHT22;8353;47.856;12.344;2023-07-16T08:43:33;24.40;99.90
16485;DHT22;8353;47.856;12.344;2023-07-16T08:46:03;24.40;99.90
16485;DHT22;8353;47.856;12.344;2023-07-16T08:48:35;24.70;99.90
16485;DHT22;8353;47.856;12.344;2023-07-16T08:51:09;25.00;99.90
16485;DHT22;8353;47.856;12.344;2023-07-16T08:53:40;25.00;99.90
16485;DHT22;8353;47.856;12.344;2023-07-16T08:56:11;25.00;99.90
16485;DHT22;8353;47.856;12.344;2023-07-16T08:58:43;25.00;99.90
16485;DHT22;8353;47.856;12.344;2023-07-16T09:01:13;24.90;99.90
16485;DHT22;8353;47.856;12.344;2023-07-16T09:03:48;24.90;99.90
16485;DHT22;8353;47.856;12.344;2023-07-16T09:06:18;25.00;99.90
16485;DHT22;8353;47.856;12.344;2023-07-16T09:08:49;25.00;99.90
16485;DHT22;8353;47.856;12.344;2023-07-16T09:11:19;25.10;99.90
16485;DHT22;8353;47.856;12.344;2023-07-16T09:13:51;25.00;99.90
16485;DHT22;8353;47.856;12.344;2023-07-16T09:16:21;25.00;99.90
16485;DHT22;8353;47.856;12.344;2023-07-16T09:18:53;25.00;99.90
16485;DHT22;8353;47.856;12.344;2023-07-16T09:21:23;24.80;99.90
16485;DHT22;8353;47.856;12.344;2023-07-16T09:23:54;25.00;99.90
16485;DHT22;8353;47.856;12.344;2023-07-16T09:26:26;25.10;99.90
16485;DHT22;8353;47.856;12.344;2023-07-16T09:28:56;25.30;99.90
16485;DHT22;8353;47.856;12.344;2023-07-16T09:31:27;25.50;99.90
16485;DHT22;8353;47.856;12.344;2023-07-16T09:33:58;25.60;99.90
16485;DHT22;8353;47.856;12.344;2023-07-16T09:36:29;25.80;99.90
16485;DHT22;8353;47.856;12.344;2023-07-16T09:38:59;25.80;99.90
16485;DHT22;8353;47.856;12.344;2023-07-16T09:41:29;25.80;99.90
16485;DHT22;8353;47.856;12.344;2023-07-16T09:44:01;26.10;99.90
16485;DHT22;8353;47.856;12.344;2023-07-16T09:46:31;26.50;99.90
16485;DHT22;8353;47.856;12.344;2023-07-16T09:49:03;26.50;99.90
16485;DHT22;8353;47.856;12.344;2023-07-16T09:51:35;26.80;99.90
16485;DHT22;8353;47.856;12.344;2023-07-16T09:54:07;27.00;99.90
16485;DHT22;8353;47.856;12.344;2023-07-16T09:56:40;27.10;99.90
16485;DHT22;8353;47.856;12.344;2023-07-16T09:59:13;27.40;99.90
16485;DHT22;8353;47.856;12.344;2023-07-16T10:01:44;27.50;99.90
16485;DHT22;8353;47.856;12.344;2023-07-16T10:04:17;27.80;99.90
16485;DHT22;8353;47.856;12.344;2023-07-16T10:06:53;27.60;99.90
16485;DHT22;8353;47.856;12.344;2023-07-16T10:09:34;27.90;99.90
16485;DHT22;8353;47.856;12.344;2023-07-16T10:12:15;28.30;99.90
16485;DHT22;8353;47.856;12.344;2023-07-16T10:14:47;28.10;99.90
16485;DHT22;8353;47.856;12.344;2023-07-16T10:17:19;28.20;99.90
16485;DHT22;8353;47.856;12.344;2023-07-16T10:19:56;28.20;99.90
16485;DHT22;8353;47.856;12.344;2023-07-16T10:22:34;28.30;99.90
16485;DHT22;8353;47.856;12.344;2023-07-16T10:25:09;28.30;99.90
16485;DHT22;8353;47.856;12.344;2023-07-16T10:27:39;28.40;99.90
16485;DHT22;8353;47.856;12.344;2023-07-16T10:30:10;28.70;99.90
16485;DHT22;8353;47.856;12.344;2023-07-16T10:32:41;28.90;99.90
16485;DHT22;8353;47.856;12.344;2023-07-16T10:35:14;28.80;99.90
16485;DHT22;8353;47.856;12.344;2023-07-16T10:37:45;29.00;99.90
16485;DHT22;8353;47.856;12.344;2023-07-16T10:40:16;28.80;99.90
16485;DHT22;8353;47.856;12.344;2023-07-16T10:42:46;29.10;99.90
16485;DHT22;8353;47.856;12.344;2023-07-16T10:45:17;29.30;99.90
16485;DHT22;8353;47.856;12.344;2023-07-16T10:47:54;29.40;99.90
16485;DHT22;8353;47.856;12.344;2023-07-16T10:50:27;29.20;99.90
16485;DHT22;8353;47.856;12.344;2023-07-16T10:52:58;29.20;99.90
16485;DHT22;8353;47.856;12.344;2023-07-16T10:55:29;29.20;99.90
16485;DHT22;8353;47.856;12.344;2023-07-16T10:58:04;29.30;99.90
16485;DHT22;8353;47.856;12.344;2023-07-16T11:00:38;29.30;99.90
16485;DHT22;8353;47.856;12.344;2023-07-16T11:03:10;29.00;99.90
16485;DHT22;8353;47.856;12.344;2023-07-16T11:05:46;29.30;99.90
16485;DHT22;8353;47.856;12.344;2023-07-16T11:08:23;29.20;99.90
16485;DHT22;8353;47.856;12.344;2023-07-16T11:10:55;29.10;99.90
16485;DHT22;8353;47.856;12.344;2023-07-16T11:13:26;29.60;99.90
16485;DHT22;8353;47.856;12.344;2023-07-16T11:15:57;30.00;99.90
16485;DHT22;8353;47.856;12.344;2023-07-16T11:18:27;29.80;99.90
16485;DHT22;8353;47.856;12.344;2023-07-16T11:20:59;29.90;99.90
16485;DHT22;8353;47.856;12.344;2023-07-16T11:23:33;29.90;99.90
16485;DHT22;8353;47.856;12.344;2023-07-16T11:26:04;29.90;99.90
16485;DHT22;8353;47.856;12.344;2023-07-16T11:28:38;30.50;99.90
16485;DHT22;8353;47.856;12.344;2023-07-16T11:31:14;30.60;99.90
16485;DHT22;8353;47.856;12.344;2023-07-16T11:33:45;30.40;99.90
16485;DHT22;8353;47.856;12.344;2023-07-16T11:36:17;30.00;99.90
16485;DHT22;8353;47.856;12.344;2023-07-16T11:38:48;30.00;99.90
16485;DHT22;8353;47.856;12.344;2023-07-16T11:41:20;30.30;99.90
16485;DHT22;8353;47.856;12.344;2023-07-16T11:43:51;30.50;99.90
16485;DHT22;8353;47.856;12.344;2023-07-16T11:46:21;30.50;99.90
16485;DHT22;8353;47.856;12.344;2023-07-16T11:48:52;30.60;99.90
16485;DHT22;8353;47.856;12.344;2023-07-16T11:51:23;30.50;99.90
16485;DHT22;8353;47.856;12.344;2023-07-16T11:53:55;31.00;99.90
16485;DHT22;8353;47.856;12.344;2023-07-16T11:56:25;31.30;99.90
16485;DHT22;8353;47.856;12.344;2023-07-16T11:58:56;31.30;99.90
16485;DHT22;8353;47.856;12.344;2023-07-16T12:01:26;31.30;99.90
16485;DHT22;8353;47.856;12.344;2023-07-16T12:03:56;31.40;99.90
16485;DHT22;8353;47.856;12.344;2023-07-16T12:06:28;31.00;99.90
16485;DHT22;8353;47.856;12.344;2023-07-16T12:08:58;31.00;99.90
16485;DHT22;8353;47.856;12.344;2023-07-16T12:11:28;30.90;99.90
16485;DHT22;8353;47.856;12.344;2023-07-16T12:13:59;30.90;99.90
16485;DHT22;8353;47.856;12.344;2023-07-16T12:16:29;31.20;99.90
16485;DHT22;8353;47.856;12.344;2023-07-16T12:19:00;31.40;99.90
16485;DHT22;8353;47.856;12.344;2023-07-16T12:21:32;31.50;99.90
16485;DHT22;8353;47.856;12.344;2023-07-16T12:24:02;31.50;99.90
16485;DHT22;8353;47.856;12.344;2023-07-16T12:26:33;31.60;99.90
16485;DHT22;8353;47.856;12.344;2023-07-16T12:29:03;31.90;99.90
16485;DHT22;8353;47.856;12.344;2023-07-16T12:31:34;31.70;99.90
16485;DHT22;8353;47.856;12.344;2023-07-16T12:34:04;31.50;99.90
16485;DHT22;8353;47.856;12.344;2023-07-16T12:36:36;32.00;99.90
16485;DHT22;8353;47.856;12.344;2023-07-16T12:39:06;32.40;99.90
16485;DHT22;8353;47.856;12.344;2023-07-16T12:41:37;32.40;99.90
16485;DHT22;8353;47.856;12.344;2023-07-16T12:44:07;32.70;99.90
16485;DHT22;8353;47.856;12.344;2023-07-16T12:46:38;32.90;99.90
16485;DHT22;8353;47.856;12.344;2023-07-16T12:49:08;33.10;99.90
16485;DHT22;8353;47.856;12.344;2023-07-16T12:51:40;33.10;99.90
16485;DHT22;8353;47.856;12.344;2023-07-16T12:54:12;33.00;99.90
16485;DHT22;8353;47.856;12.344;2023-07-16T12:56:43;32.70;99.90
16485;DHT22;8353;47.856;12.344;2023-07-16T12:59:13;32.40;99.90
16485;DHT22;8353;47.856;12.344;2023-07-16T13:01:43;32.40;99.90
16485;DHT22;8353;47.856;12.344;2023-07-16T13:04:14;32.80;99.90
16485;DHT22;8353;47.856;12.344;2023-07-16T13:06:46;32.70;99.90
16485;DHT22;8353;47.856;12.344;2023-07-16T13:09:16;32.50;99.90
16485;DHT22;8353;47.856;12.344;2023-07-16T13:11:47;32.80;99.90
16485;DHT22;8353;47.856;12.344;2023-07-16T13:14:18;32.80;99.90
16485;DHT22;8353;47.856;12.344;2023-07-16T13:16:48;32.70;99.90
16485;DHT22;8353;47.856;12.344;2023-07-16T13:19:18;32.90;99.90
16485;DHT22;8353;47.856;12.344;2023-07-16T13:21:50;32.80;99.90
16485;DHT22;8353;47.856;12.344;2023-07-16T13:24:21;32.80;99.90
16485;DHT22;8353;47.856;12.344;2023-07-16T13:26:51;32.90;99.90
16485;DHT22;8353;47.856;12.344;2023-07-16T13:29:22;33.00;99.90
16485;DHT22;8353;47.856;12.344;2023-07-16T13:31:52;33.00;99.90
16485;DHT22;8353;47.856;12.344;2023-07-16T13:34:22;33.40;99.90
16485;DHT22;8353;47.856;12.344;2023-07-16T13:36:54;33.30;99.90
16485;DHT22;8353;47.856;12.344;2023-07-16T13:39:24;33.50;99.90
16485;DHT22;8353;47.856;12.344;2023-07-16T13:41:54;33.70;99.90
16485;DHT22;8353;47.856;12.344;2023-07-16T13:44:24;33.80;99.90
16485;DHT22;8353;47.856;12.344;2023-07-16T13:46:55;33.70;99.90
16485;DHT22;8353;47.856;12.344;2023-07-16T13:49:25;34.00;99.90
16485;DHT22;8353;47.856;12.344;2023-07-16T13:51:57;34.10;99.90
16485;DHT22;8353;47.856;12.344;2023-07-16T13:54:28;34.40;99.90
16485;DHT22;8353;47.856;12.344;2023-07-16T13:56:58;34.70;99.90
16485;DHT22;8353;47.856;12.344;2023-07-16T13:59:28;35.10;99.90
16485;DHT22;8353;47.856;12.344;2023-07-16T14:02:00;34.60;99.90
16485;DHT22;8353;47.856;12.344;2023-07-16T14:04:30;34.60;99.90
16485;DHT22;8353;47.856;12.344;2023-07-16T14:07:03;34.60;99.90
16485;DHT22;8353;47.856;12.344;2023-07-16T14:09:33;34.50;99.90
16485;DHT22;8353;47.856;12.344;2023-07-16T14:12:05;34.50;99.90
16485;DHT22;8353;47.856;12.344;2023-07-16T14:14:35;34.40;99.90
16485;DHT22;8353;47.856;12.344;2023-07-16T14:17:06;34.30;99.90
16485;DHT22;8353;47.856;12.344;2023-07-16T14:19:36;34.10;99.90
16485;DHT22;8353;47.856;12.344;2023-07-16T14:22:08;34.00;99.90
16485;DHT22;8353;47.856;12.344;2023-07-16T14:24:40;33.80;99.90
16485;DHT22;8353;47.856;12.344;2023-07-16T14:27:11;33.70;99.90
16485;DHT22;8353;47.856;12.344;2023-07-16T14:29:43;33.60;99.90
16485;DHT22;8353;47.856;12.344;2023-07-16T14:32:12;33.90;99.90
16485;DHT22;8353;47.856;12.344;2023-07-16T14:34:42;34.10;99.90
16485;DHT22;8353;47.856;12.344;2023-07-16T14:37:14;34.00;99.90
16485;DHT22;8353;47.856;12.344;2023-07-16T14:39:45;34.10;99.90
16485;DHT22;8353;47.856;12.344;2023-07-16T14:42:15;34.10;99.90
16485;DHT22;8353;47.856;12.344;2023-07-16T14:44:45;33.70;99.90
16485;DHT22;8353;47.856;12.344;2023-07-16T14:47:15;33.70;99.90
16485;DHT22;8353;47.856;12.344;2023-07-16T14:49:46;33.50;99.90
16485;DHT22;8353;47.856;12.344;2023-07-16T14:52:18;33.30;99.90
16485;DHT22;8353;47.856;12.344;2023-07-16T14:54:49;33.50;99.90
16485;DHT22;8353;47.856;12.344;2023-07-16T14:57:19;33.50;99.90
16485;DHT22;8353;47.856;12.344;2023-07-16T14:59:49;33.50;99.90
16485;DHT22;8353;47.856;12.344;2023-07-16T15:02:20;33.30;99.90
16485;DHT22;8353;47.856;12.344;2023-07-16T15:04:50;33.30;99.90
16485;DHT22;8353;47.856;12.344;2023-07-16T15:07:22;32.90;99.90
16485;DHT22;8353;47.856;12.344;2023-07-16T15:09:52;32.80;99.90
16485;DHT22;8353;47.856;12.344;2023-07-16T15:12:22;32.80;99.90
16485;DHT22;8353;47.856;12.344;2023-07-16T15:14:52;32.70;99.90
16485;DHT22;8353;47.856;12.344;2023-07-16T15:17:23;32.50;99.90
16485;DHT22;8353;47.856;12.344;2023-07-16T15:19:53;32.40;99.90
16485;DHT22;8353;47.856;12.344;2023-07-16T15:22:25;32.20;99.90
16485;DHT22;8353;47.856;12.344;2023-07-16T15:24:55;31.90;99.90
16485;DHT22;8353;47.856;12.344;2023-07-16T15:27:26;31.70;99.90
16485;DHT22;8353;47.856;12.344;2023-07-16T15:29:57;31.50;99.90
16485;DHT22;8353;47.856;12.344;2023-07-16T15:32:27;31.50;99.90
16485;DHT22;8353;47.856;12.344;2023-07-16T15:34:57;31.20;99.90
16485;DHT22;8353;47.856;12.344;2023-07-16T15:37:29;31.00;99.90
16485;DHT22;8353;47.856;12.344;2023-07-16T15:40:12;30.90;99.90
16485;DHT22;8353;47.856;12.344;2023-07-16T15:42:43;30.80;99.90
16485;DHT22;8353;47.856;12.344;2023-07-16T15:45:14;30.60;99.90
16485;DHT22;8353;47.856;12.344;2023-07-16T15:47:46;30.50;99.90
16485;DHT22;8353;47.856;12.344;2023-07-16T15:50:18;30.30;99.90
16485;DHT22;8353;47.856;12.344;2023-07-16T15:52:50;30.20;99.90
16485;DHT22;8353;47.856;12.344;2023-07-16T15:55:21;30.00;99.90
16485;DHT22;8353;47.856;12.344;2023-07-16T15:57:52;29.70;99.90
16485;DHT22;8353;47.856;12.344;2023-07-16T16:00:23;29.60;99.90
16485;DHT22;8353;47.856;12.344;2023-07-16T16:02:54;29.60;99.90